Wrightstown, Ohio
Current Conditions -  °F | °C
As of 8:35 PM on Saturday 20 Dec 2014 (Local Time) from KUNI Reporting Station
Overcast Overcast  
Wind Chill: 32°   Ceiling: 4600
Heat Index: 32°   Visibility: 10mi
Dew Point: 25°   Wind: 0mph
Humidity: 75%   Direction: NA
Pressure: 30.27"   Gusts: NA
Location:  39.5152°N, 82.0676°W
Report Text: KUNI 210135Z AUTO 00000KT 10SM SCT023 OVC046 00/M04 A3027 RMK AO2 T10021041
Loading
Personal Weather Stations






























Interactive Weather Map New forecast layout! Learn more

10-Day Weather Forecast

Advertisements
Track Severe Weather on mobile